This is the latest recevied weather packets stored in our database for station/object SP2ARK-10. If no packets are shown the sender has not sent any weather packets the latest 10 day(s).
| Time | Temp. | Humidity | Pressure | Rain* | Wind** | Luminosity | Snow |
|---|---|---|---|---|---|---|---|
| 1777782868 | 15.56° C | 66% | 1022.7 hPa | - | - | - | - |
| 1777781968 | 15° C | 66% | 1022.6 hPa | - | - | - | - |
| 1777781067 | 15° C | 66% | 1022.8 hPa | - | - | - | - |
| 1777780166 | 15° C | 66% | 1022.8 hPa | - | - | - | - |
| 1777779266 | 15° C | 66% | 1022.7 hPa | - | - | - | - |
| 1777778366 | 15.56° C | 66% | 1022.9 hPa | - | - | - | - |
| 1777777465 | 15.56° C | 66% | 1022.8 hPa | - | - | - | - |
| 1777776565 | 15.56° C | 66% | 1022.7 hPa | - | - | - | - |
| 1777775664 | 15.56° C | 66% | 1022.8 hPa | - | - | - | - |
| 1777774763 | 16.11° C | 66% | 1023 hPa | - | - | - | - |
| 1777773863 | 16.11° C | 65% | 1023 hPa | - | - | - | - |
| 1777772962 | 16.67° C | 65% | 1023 hPa | - | - | - | - |
| 1777772062 | 16.67° C | 65% | 1023 hPa | - | - | - | - |
| 1777771161 | 16.67° C | 65% | 1023 hPa | - | - | - | - |
| 1777770261 | 17.22° C | 68% | 1023.2 hPa | - | - | - | - |
| 1777769360 | 17.22° C | 63% | 1023.1 hPa | - | - | - | - |
| 1777768459 | 17.78° C | 63% | 1023.2 hPa | - | - | - | - |
| 1777767559 | 17.78° C | 63% | 1023.3 hPa | - | - | - | - |
| 1777766658 | 17.78° C | 62% | 1023.4 hPa | - | - | - | - |
| 1777765757 | 18.33° C | 62% | 1023.4 hPa | - | - | - | - |
| 1777764856 | 18.33° C | 62% | 1023.4 hPa | - | - | - | - |
| 1777763956 | 18.89° C | 61% | 1023.4 hPa | - | - | - | - |
| 1777763055 | 18.89° C | 61% | 1023.5 hPa | - | - | - | - |
| 1777762154 | 19.44° C | 60% | 1023.7 hPa | - | - | - | - |
| 1777761254 | 19.44° C | 60% | 1023.7 hPa | - | - | - | - |
* Rain since midnight (hover to see other rain measurements)
** Current wind speed in m/s (hover to see current wind gust speed)